createdAt,value
2022-09-28T00:01:19.698Z,78.03
2022-09-28T00:03:49.659Z,78.00
2022-09-28T00:06:20.616Z,78.19
2022-09-28T00:08:51.344Z,78.34
2022-09-28T00:11:21.872Z,78.28
2022-09-28T00:13:52.509Z,78.49
2022-09-28T00:16:24.134Z,78.22
2022-09-28T00:18:54.224Z,78.33
2022-09-28T00:21:25.070Z,78.37
2022-09-28T00:24:12.993Z,78.83
2022-09-28T00:26:50.400Z,79.51
2022-09-28T00:29:31.735Z,79.18
2022-09-28T00:32:10.351Z,79.50
2022-09-28T00:34:45.941Z,79.66
2022-09-28T00:37:24.975Z,79.91
2022-09-28T00:39:53.577Z,79.94
2022-09-28T00:42:25.136Z,79.81
2022-09-28T00:44:57.801Z,79.83
2022-09-28T00:47:42.279Z,80.14
2022-09-28T00:50:29.265Z,80.41
2022-09-28T00:53:18.726Z,80.84
2022-09-28T00:55:51.221Z,81.14
2022-09-28T00:58:28.276Z,81.20
2022-09-28T01:01:05.361Z,81.26
2022-09-28T01:03:48.776Z,81.44
2022-09-28T01:06:22.318Z,81.36
2022-09-28T01:08:53.824Z,81.47
2022-09-28T01:11:22.174Z,82.16
2022-09-28T01:13:54.077Z,81.95
2022-09-28T01:16:44.851Z,82.23
2022-09-28T01:19:35.334Z,82.09
2022-09-28T01:22:43.711Z,82.28
2022-09-28T01:25:30.218Z,82.95
2022-09-28T01:28:04.958Z,82.95
2022-09-28T01:30:51.237Z,83.12
2022-09-28T01:33:32.909Z,83.49
2022-09-28T01:36:17.928Z,83.25
2022-09-28T01:39:09.001Z,82.87
2022-09-28T01:41:40.460Z,82.41
2022-09-28T01:44:14.709Z,82.21
2022-09-28T01:47:05.382Z,82.24
2022-09-28T01:49:45.381Z,82.04
2022-09-28T01:52:19.523Z,81.98
2022-09-28T01:54:58.607Z,81.82
2022-09-28T01:57:37.728Z,81.80
2022-09-28T02:00:07.167Z,81.77
2022-09-28T02:03:09.792Z,82.02
2022-09-28T02:05:53.500Z,82.09
2022-09-28T02:08:30.069Z,82.12
2022-09-28T02:11:08.619Z,82.22
2022-09-28T02:13:44.992Z,82.54
2022-09-28T02:16:47.423Z,82.45
2022-09-28T02:19:30.551Z,82.41
2022-09-28T02:22:33.883Z,82.43
2022-09-28T02:25:14.053Z,82.96
2022-09-28T02:27:45.453Z,82.88
2022-09-28T02:30:14.708Z,82.81
2022-09-28T02:32:47.111Z,82.74
2022-09-28T02:35:19.919Z,82.88
2022-09-28T02:37:49.965Z,82.93
2022-09-28T02:40:22.294Z,83.03
2022-09-28T02:43:02.653Z,83.06
2022-09-28T02:45:48.407Z,83.04
2022-09-28T02:48:45.677Z,83.28
2022-09-28T02:51:16.694Z,83.31
2022-09-28T02:53:53.876Z,83.26
2022-09-28T02:56:45.131Z,83.26
2022-09-28T02:59:31.137Z,83.69
2022-09-28T03:01:59.366Z,83.73
2022-09-28T03:04:36.423Z,83.74
2022-09-28T03:07:12.730Z,83.72
2022-09-28T03:09:52.538Z,83.74
2022-09-28T03:12:23.631Z,83.67
2022-09-28T03:15:08.293Z,83.71
2022-09-28T03:17:36.483Z,83.85
2022-09-28T03:20:05.582Z,83.92
2022-09-28T03:22:33.732Z,83.94
2022-09-28T03:25:01.732Z,83.90
2022-09-28T03:27:30.184Z,83.84
2022-09-28T03:29:58.388Z,83.81
2022-09-28T03:32:26.430Z,83.79
2022-09-28T03:34:54.516Z,83.95
2022-09-28T03:37:23.100Z,83.78
2022-09-28T03:39:51.162Z,83.98
2022-09-28T03:42:19.222Z,84.12
2022-09-28T03:44:49.425Z,84.39
2022-09-28T03:47:19.426Z,84.44
2022-09-28T03:49:47.589Z,84.20
2022-09-28T03:52:15.974Z,84.28
2022-09-28T03:54:48.964Z,84.20
2022-09-28T03:57:17.445Z,84.18
2022-09-28T03:59:45.536Z,84.17
2022-09-28T04:02:13.673Z,84.25
2022-09-28T04:04:43.437Z,84.35
2022-09-28T04:07:11.831Z,84.31
2022-09-28T04:09:40.149Z,84.29
2022-09-28T04:12:08.180Z,84.12
2022-09-28T04:14:36.581Z,84.13
2022-09-28T04:17:05.760Z,84.00
2022-09-28T04:19:34.036Z,84.11
2022-09-28T04:22:17.742Z,84.07
2022-09-28T04:24:46.554Z,84.34
2022-09-28T04:27:33.104Z,84.23
2022-09-28T04:30:02.028Z,84.31
2022-09-28T04:32:31.120Z,84.37
2022-09-28T04:34:59.119Z,84.42
2022-09-28T04:37:27.263Z,84.39
2022-09-28T04:39:55.316Z,84.40
2022-09-28T04:42:23.612Z,84.48
2022-09-28T04:44:52.336Z,84.46
2022-09-28T04:47:20.447Z,84.43
2022-09-28T04:50:09.181Z,84.36
2022-09-28T04:52:57.281Z,84.34
2022-09-28T04:55:25.477Z,84.16
2022-09-28T04:57:53.953Z,84.26
2022-09-28T05:00:22.145Z,84.29
2022-09-28T05:03:05.984Z,84.18
2022-09-28T05:06:00.338Z,84.23
2022-09-28T05:08:51.993Z,84.38
2022-09-28T05:11:21.656Z,84.18
2022-09-28T05:13:50.521Z,84.33
2022-09-28T05:16:20.509Z,84.45
2022-09-28T05:19:07.066Z,84.18
2022-09-28T05:21:35.608Z,84.16
2022-09-28T05:24:07.524Z,84.18
2022-09-28T05:26:40.086Z,84.08
2022-09-28T05:29:11.764Z,84.12
2022-09-28T05:31:52.413Z,84.30
2022-09-28T05:34:32.825Z,84.36
2022-09-28T05:37:01.111Z,84.45
2022-09-28T05:39:29.345Z,84.44
2022-09-28T05:41:58.105Z,84.47
2022-09-28T05:44:26.332Z,84.46
2022-09-28T05:46:55.350Z,84.22
2022-09-28T05:49:24.133Z,84.23
2022-09-28T05:51:52.446Z,84.31
2022-09-28T05:54:21.681Z,84.45
2022-09-28T05:56:52.080Z,84.37
2022-09-28T05:59:20.287Z,84.26
2022-09-28T06:01:49.010Z,84.10
2022-09-28T06:04:17.324Z,84.02
2022-09-28T06:06:45.848Z,84.21
2022-09-28T06:09:13.946Z,84.08
2022-09-28T06:11:54.357Z,84.21
2022-09-28T06:14:32.534Z,84.19
2022-09-28T06:17:00.581Z,84.18
2022-09-28T06:19:28.914Z,84.20
2022-09-28T06:22:25.098Z,83.85
2022-09-28T06:25:06.967Z,83.50
2022-09-28T06:27:35.262Z,82.45
2022-09-28T06:30:04.157Z,81.62
2022-09-28T06:32:32.583Z,80.72
2022-09-28T06:35:00.515Z,80.48
2022-09-28T06:37:28.987Z,80.32
2022-09-28T06:39:57.393Z,80.46
2022-09-28T06:42:25.470Z,80.63
2022-09-28T06:45:12.070Z,80.43
2022-09-28T06:48:07.225Z,80.25
2022-09-28T06:50:41.353Z,80.06
2022-09-28T06:53:25.036Z,79.89
2022-09-28T06:56:15.706Z,79.86
2022-09-28T06:58:43.777Z,79.33
2022-09-28T07:01:12.312Z,78.54
2022-09-28T07:03:55.417Z,77.67
2022-09-28T07:06:47.822Z,77.39
2022-09-28T07:09:55.453Z,76.29
2022-09-28T07:13:04.747Z,75.81
2022-09-28T07:15:43.799Z,75.45
2022-09-28T07:18:14.955Z,74.79
2022-09-28T07:20:52.180Z,71.47
2022-09-28T07:23:22.389Z,68.80
2022-09-28T07:26:09.294Z,64.63
2022-09-28T07:29:09.560Z,64.27
2022-09-28T07:32:00.410Z,63.27
2022-09-28T07:34:58.971Z,63.27
2022-09-28T07:37:38.680Z,63.60
2022-09-28T07:40:26.542Z,63.71
2022-09-28T07:42:54.665Z,63.77
2022-09-28T07:45:26.128Z,63.18
2022-09-28T07:47:57.169Z,64.46
2022-09-28T07:50:54.600Z,63.71
2022-09-28T07:53:38.965Z,62.06
2022-09-28T07:56:34.972Z,60.07
2022-09-28T07:59:08.501Z,57.65
2022-09-28T08:01:54.757Z,55.36
2022-09-28T08:04:25.407Z,51.07
2022-09-28T08:06:53.486Z,48.49
2022-09-28T08:09:21.702Z,47.47
2022-09-28T08:12:10.991Z,45.25
2022-09-28T08:14:46.702Z,46.40
2022-09-28T08:17:50.449Z,46.66
2022-09-28T08:20:39.294Z,46.34
2022-09-28T08:23:09.201Z,44.07
2022-09-28T08:25:38.887Z,45.12
2022-09-28T08:28:08.004Z,44.76
2022-09-28T08:30:44.398Z,45.77
2022-09-28T08:33:28.393Z,46.93
2022-09-28T08:36:14.918Z,47.86
2022-09-28T08:39:01.336Z,48.83
2022-09-28T08:42:37.139Z,49.33
2022-09-28T08:45:26.170Z,49.60
2022-09-28T08:48:37.769Z,49.41
2022-09-28T08:51:35.988Z,47.74
2022-09-28T08:54:39.252Z,47.70
2022-09-28T08:57:20.772Z,47.61
2022-09-28T08:59:54.517Z,47.17
2022-09-28T09:02:33.797Z,47.84
2022-09-28T09:05:26.936Z,45.61
2022-09-28T09:08:37.192Z,45.83
2022-09-28T09:11:21.052Z,46.38
2022-09-28T09:13:52.985Z,47.32
2022-09-28T09:16:44.254Z,47.56
2022-09-28T09:19:54.216Z,48.39
2022-09-28T09:22:55.796Z,48.86
2022-09-28T09:25:54.989Z,48.18
2022-09-28T09:28:39.676Z,47.25
2022-09-28T09:31:45.476Z,47.31
2022-09-28T09:34:25.717Z,47.97
2022-09-28T09:37:30.191Z,48.76
2022-09-28T09:40:34.665Z,48.72
2022-09-28T09:43:29.528Z,49.46
2022-09-28T09:46:34.551Z,49.49
2022-09-28T09:49:29.329Z,48.57
2022-09-28T09:52:24.808Z,49.37
2022-09-28T09:55:03.820Z,48.72
2022-09-28T09:58:21.856Z,48.74
2022-09-28T10:01:07.483Z,49.18
2022-09-28T10:03:56.720Z,48.26
2022-09-28T10:06:34.861Z,48.13
2022-09-28T10:09:24.180Z,47.81
2022-09-28T10:11:54.119Z,47.24
2022-09-28T10:14:25.113Z,46.66
2022-09-28T10:17:04.102Z,46.56
2022-09-28T10:20:04.984Z,46.20
2022-09-28T10:22:52.285Z,45.41
2022-09-28T10:25:25.223Z,45.18
2022-09-28T10:27:53.444Z,44.28
2022-09-28T10:30:24.226Z,44.56
2022-09-28T10:32:59.247Z,44.90
2022-09-28T10:35:40.469Z,44.90
2022-09-28T10:38:18.933Z,43.70
2022-09-28T10:40:59.856Z,43.59
2022-09-28T10:43:39.302Z,44.47
2022-09-28T10:46:21.461Z,45.00
2022-09-28T10:48:56.493Z,44.69
2022-09-28T10:51:46.893Z,44.59
2022-09-28T10:54:30.602Z,44.49
2022-09-28T10:57:01.242Z,45.29
2022-09-28T10:59:49.200Z,46.27
2022-09-28T11:02:43.366Z,46.73
2022-09-28T11:05:24.963Z,46.39
2022-09-28T11:07:56.492Z,46.69
2022-09-28T11:10:31.096Z,45.48
2022-09-28T11:13:03.659Z,45.30
2022-09-28T11:15:33.661Z,43.96
2022-09-28T11:18:31.647Z,43.87
2022-09-28T11:21:14.904Z,44.16
2022-09-28T11:24:06.015Z,43.04
2022-09-28T11:26:41.151Z,41.87
2022-09-28T11:29:30.989Z,41.44
2022-09-28T11:32:19.801Z,42.30
2022-09-28T11:35:30.031Z,41.61
2022-09-28T11:38:14.974Z,42.14
2022-09-28T11:41:35.340Z,41.61
2022-09-28T11:44:15.168Z,41.68
2022-09-28T11:46:56.192Z,41.31
2022-09-28T11:49:33.719Z,41.16
2022-09-28T11:52:10.068Z,41.83
2022-09-28T11:54:48.497Z,42.29
2022-09-28T11:57:22.486Z,43.19
2022-09-28T11:59:59.655Z,43.77
2022-09-28T12:02:40.116Z,43.61
2022-09-28T12:05:17.134Z,44.37
2022-09-28T12:07:54.987Z,44.47
2022-09-28T12:10:54.012Z,45.14
2022-09-28T12:13:33.315Z,45.35
2022-09-28T12:16:45.196Z,45.50
2022-09-28T12:19:16.013Z,45.95
2022-09-28T12:21:53.931Z,46.47
2022-09-28T12:24:28.267Z,46.93
2022-09-28T12:28:03.838Z,46.91
2022-09-28T12:30:40.601Z,47.58
2022-09-28T12:33:12.467Z,47.78
2022-09-28T12:36:04.153Z,48.90
2022-09-28T12:38:48.249Z,49.97
2022-09-28T12:41:34.915Z,49.54
2022-09-28T12:44:24.493Z,50.34
2022-09-28T12:47:09.673Z,50.41
2022-09-28T12:52:50.597Z,49.71
2022-09-28T12:55:26.600Z,49.83
2022-09-28T12:58:03.910Z,50.97
2022-09-28T13:00:40.827Z,51.16
2022-09-28T13:03:23.705Z,51.09
2022-09-28T13:06:15.285Z,51.19
2022-09-28T13:09:04.107Z,51.03
2022-09-28T13:11:41.368Z,51.67
2022-09-28T13:14:57.797Z,51.21
2022-09-28T13:17:45.987Z,51.65
2022-09-28T13:20:31.335Z,51.34
2022-09-28T13:23:15.440Z,51.28
2022-09-28T13:25:50.117Z,51.10
2022-09-28T13:28:26.177Z,51.27
2022-09-28T13:30:56.955Z,51.74
2022-09-28T13:33:36.785Z,51.99
2022-09-28T13:36:27.553Z,52.38
2022-09-28T13:39:04.468Z,52.56
2022-09-28T13:41:36.700Z,52.24
2022-09-28T13:44:27.147Z,53.07
2022-09-28T13:47:39.994Z,53.52
2022-09-28T13:50:17.022Z,53.72
2022-09-28T13:52:52.636Z,54.49
2022-09-28T13:55:54.101Z,54.81
2022-09-28T13:58:36.141Z,54.99
2022-09-28T14:01:10.734Z,55.26
2022-09-28T14:03:43.889Z,56.52
2022-09-28T14:06:24.425Z,55.80
2022-09-28T14:08:52.290Z,55.53
2022-09-28T14:11:24.759Z,56.34
2022-09-28T14:14:07.618Z,56.47
2022-09-28T14:16:37.026Z,56.97
2022-09-28T14:19:21.075Z,57.15
2022-09-28T14:22:36.549Z,56.66
2022-09-28T14:25:20.001Z,56.71
2022-09-28T14:28:06.744Z,56.25
2022-09-28T14:30:43.674Z,56.32
2022-09-28T14:33:21.004Z,56.74
2022-09-28T14:35:54.110Z,57.12
2022-09-28T14:38:46.717Z,57.40
2022-09-28T14:41:19.668Z,56.70
2022-09-28T14:43:47.766Z,56.63
2022-09-28T14:46:17.277Z,57.29
2022-09-28T14:48:55.844Z,57.66
2022-09-28T14:51:26.948Z,57.54
2022-09-28T14:54:02.241Z,57.46
2022-09-28T14:56:58.953Z,58.07
2022-09-28T14:59:38.436Z,58.05
2022-09-28T15:02:15.172Z,57.78
2022-09-28T15:05:00.136Z,57.85
2022-09-28T15:07:34.279Z,58.15
2022-09-28T15:10:02.788Z,57.62
2022-09-28T15:12:32.532Z,58.09
2022-09-28T15:15:03.077Z,57.98
2022-09-28T15:17:39.717Z,58.16
2022-09-28T15:20:25.368Z,58.28
2022-09-28T15:22:58.709Z,58.25
2022-09-28T15:25:29.213Z,58.60
2022-09-28T15:28:01.282Z,58.78
2022-09-28T15:30:32.321Z,59.05
2022-09-28T15:33:21.727Z,60.00
2022-09-28T15:35:59.376Z,60.52
2022-09-28T15:38:28.899Z,61.02
2022-09-28T15:40:57.569Z,61.27
2022-09-28T15:43:29.100Z,61.81
2022-09-28T15:46:06.676Z,61.90
2022-09-28T15:48:38.811Z,61.52
2022-09-28T15:51:12.360Z,61.57
2022-09-28T15:53:44.060Z,62.00
2022-09-28T15:56:12.245Z,62.92
2022-09-28T15:58:40.301Z,63.41
2022-09-28T16:01:17.683Z,63.47
2022-09-28T16:03:45.681Z,63.43
2022-09-28T16:06:14.534Z,63.18
2022-09-28T16:08:49.015Z,62.79
2022-09-28T16:11:23.965Z,62.84
2022-09-28T16:14:06.405Z,62.95
2022-09-28T16:16:43.285Z,62.58
2022-09-28T16:19:37.847Z,62.48
2022-09-28T16:22:16.209Z,62.27
2022-09-28T16:24:54.585Z,61.92
2022-09-28T16:27:39.846Z,62.02
2022-09-28T16:30:24.892Z,61.78
2022-09-28T16:33:02.199Z,62.25
2022-09-28T16:35:53.773Z,62.43
2022-09-28T16:38:21.890Z,62.50
2022-09-28T16:40:54.582Z,63.00
2022-09-28T16:43:28.745Z,63.33
2022-09-28T16:45:59.640Z,63.66
2022-09-28T16:48:30.270Z,63.94
2022-09-28T16:50:59.069Z,64.35
2022-09-28T16:53:45.889Z,64.51
2022-09-28T16:56:22.416Z,64.95
2022-09-28T16:58:50.746Z,65.52
2022-09-28T17:01:19.639Z,65.77
2022-09-28T17:03:50.136Z,65.84
2022-09-28T17:06:20.846Z,66.38
2022-09-28T17:08:49.057Z,66.71
2022-09-28T17:11:23.996Z,67.22
2022-09-28T17:13:58.339Z,67.27
2022-09-28T17:19:23.724Z,67.73
2022-09-28T17:21:52.645Z,67.57
2022-09-28T17:24:21.149Z,68.13
2022-09-28T17:26:51.311Z,68.28
2022-09-28T17:29:30.226Z,68.50
2022-09-28T17:32:05.077Z,68.74
2022-09-28T17:34:33.199Z,68.89
2022-09-28T17:37:01.246Z,69.15
2022-09-28T17:39:31.754Z,69.21
2022-09-28T17:42:00.022Z,68.96
2022-09-28T17:44:28.440Z,69.13
2022-09-28T17:46:57.185Z,68.86
2022-09-28T17:49:25.272Z,69.41
2022-09-28T17:51:53.449Z,69.46
2022-09-28T17:54:22.801Z,69.20
2022-09-28T17:56:51.194Z,69.68
2022-09-28T17:59:19.344Z,69.78
2022-09-28T18:01:48.365Z,69.71
2022-09-28T18:04:39.782Z,69.63
2022-09-28T18:07:05.623Z,69.57
2022-09-28T18:09:34.034Z,69.81
2022-09-28T18:12:07.836Z,69.52
2022-09-28T18:14:44.798Z,69.84
2022-09-28T18:17:12.835Z,69.76
2022-09-28T18:19:40.879Z,69.47
2022-09-28T18:22:08.870Z,69.30
2022-09-28T18:24:36.854Z,69.56
2022-09-28T18:27:05.117Z,70.01
2022-09-28T18:29:33.735Z,70.12
2022-09-28T18:32:02.378Z,70.53
2022-09-28T18:34:31.202Z,70.43
2022-09-28T18:36:59.355Z,70.56
2022-09-28T18:39:27.412Z,70.74
2022-09-28T18:41:55.461Z,71.11
2022-09-28T18:44:24.212Z,71.08
2022-09-28T18:46:52.310Z,71.24
2022-09-28T18:49:21.779Z,71.55
2022-09-28T18:51:49.975Z,71.51
2022-09-28T18:54:18.133Z,71.50
2022-09-28T18:56:46.206Z,71.29
2022-09-28T18:59:14.859Z,71.48
2022-09-28T19:01:43.527Z,71.49
2022-09-28T19:04:13.531Z,71.84
2022-09-28T19:06:44.495Z,72.10
2022-09-28T19:09:13.237Z,72.17
2022-09-28T19:11:44.572Z,72.48
2022-09-28T19:14:15.137Z,72.64
2022-09-28T19:16:44.972Z,73.66
2022-09-28T19:19:15.043Z,73.03
2022-09-28T19:21:43.894Z,73.08
2022-09-28T19:24:17.475Z,73.16
2022-09-28T19:26:46.712Z,73.47
2022-09-28T19:29:15.959Z,73.68
2022-09-28T19:31:43.996Z,73.62
2022-09-28T19:34:14.178Z,73.60
2022-09-28T19:36:43.101Z,73.72
2022-09-28T19:39:14.798Z,73.82
2022-09-28T19:41:49.452Z,74.08
2022-09-28T19:44:26.836Z,74.36
2022-09-28T19:47:00.168Z,74.29
2022-09-28T19:49:33.239Z,74.42
2022-09-28T19:52:13.439Z,74.32
2022-09-28T19:54:57.367Z,74.43
2022-09-28T19:57:30.720Z,74.39
2022-09-28T20:00:03.707Z,74.92
2022-09-28T20:02:36.910Z,74.98
2022-09-28T20:05:05.476Z,75.02
2022-09-28T20:07:34.838Z,75.01
2022-09-28T20:10:03.315Z,75.32
2022-09-28T20:12:31.783Z,75.46
2022-09-28T20:14:59.791Z,75.47
2022-09-28T20:17:27.952Z,75.43
2022-09-28T20:19:55.993Z,75.56
2022-09-28T20:22:24.078Z,75.74
2022-09-28T20:24:52.301Z,76.03
2022-09-28T20:27:24.340Z,75.66
2022-09-28T20:29:54.378Z,76.18
2022-09-28T20:32:22.389Z,76.14
2022-09-28T20:34:50.963Z,76.30
2022-09-28T20:37:19.369Z,76.52
2022-09-28T20:39:47.419Z,76.43
2022-09-28T20:42:15.780Z,76.28
2022-09-28T20:44:44.187Z,76.42
2022-09-28T20:47:12.483Z,76.32
2022-09-28T20:49:40.925Z,76.57
2022-09-28T20:52:09.058Z,76.76
2022-09-28T20:54:46.587Z,76.85
2022-09-28T20:57:17.806Z,76.92
2022-09-28T20:59:55.105Z,77.08
2022-09-28T21:02:26.739Z,76.96
2022-09-28T21:04:57.908Z,77.09
2022-09-28T21:07:26.017Z,77.19
2022-09-28T21:09:53.967Z,77.45
2022-09-28T21:14:40.479Z,77.52
2022-09-28T21:17:08.528Z,77.67
2022-09-28T21:19:36.601Z,77.73
2022-09-28T21:22:04.664Z,77.85
2022-09-28T21:24:32.841Z,77.95
2022-09-28T21:27:01.119Z,78.10
2022-09-28T21:29:29.361Z,78.43
2022-09-28T21:31:57.386Z,78.49
2022-09-28T21:34:25.698Z,78.67
2022-09-28T21:36:54.581Z,78.66
2022-09-28T21:39:22.664Z,78.94
2022-09-28T21:41:50.773Z,78.95
2022-09-28T21:44:19.068Z,78.94
2022-09-28T21:46:47.231Z,78.94
2022-09-28T21:49:15.347Z,79.13
2022-09-28T21:51:43.372Z,79.29
2022-09-28T21:54:12.177Z,79.38
2022-09-28T21:56:40.349Z,79.38
2022-09-28T21:59:08.507Z,79.51
2022-09-28T22:01:36.688Z,79.67
2022-09-28T22:04:09.054Z,79.72
2022-09-28T22:06:37.058Z,79.92
2022-09-28T22:09:06.019Z,79.88
2022-09-28T22:11:34.294Z,79.96
2022-09-28T22:14:02.319Z,79.97
2022-09-28T22:16:31.870Z,80.04
2022-09-28T22:19:00.046Z,80.60
2022-09-28T22:21:32.046Z,81.03
2022-09-28T22:24:02.345Z,80.95
2022-09-28T22:26:31.891Z,80.45
2022-09-28T22:29:05.523Z,80.19
2022-09-28T22:31:36.973Z,80.04
2022-09-28T22:34:05.689Z,79.85
2022-09-28T22:36:34.573Z,79.92
2022-09-28T22:39:02.862Z,79.60
2022-09-28T22:41:32.234Z,79.73
2022-09-28T22:44:00.642Z,79.97
2022-09-28T22:46:32.113Z,80.05
2022-09-28T22:49:00.971Z,79.93
2022-09-28T22:51:30.314Z,79.77
2022-09-28T22:53:59.052Z,79.77
2022-09-28T22:56:27.365Z,79.83
2022-09-28T22:58:55.824Z,80.00
2022-09-28T23:01:29.258Z,80.28
2022-09-28T23:03:58.523Z,80.77
2022-09-28T23:06:28.441Z,80.42
2022-09-28T23:08:57.125Z,80.11
2022-09-28T23:11:25.352Z,80.08
2022-09-28T23:13:56.026Z,80.17
2022-09-28T23:16:25.775Z,80.23
2022-09-28T23:18:55.345Z,80.28
2022-09-28T23:21:25.885Z,80.29
2022-09-28T23:23:56.713Z,80.23
2022-09-28T23:26:28.173Z,80.34
2022-09-28T23:28:56.768Z,80.24
2022-09-28T23:31:28.476Z,80.46
2022-09-28T23:34:01.442Z,80.64
2022-09-28T23:36:30.712Z,80.62
2022-09-28T23:38:58.683Z,80.50
2022-09-28T23:41:27.038Z,80.50
2022-09-28T23:43:55.111Z,80.42
2022-09-28T23:46:23.547Z,80.55
2022-09-28T23:48:54.301Z,80.45
2022-09-28T23:51:22.402Z,80.41
2022-09-28T23:53:50.748Z,80.36
2022-09-28T23:56:18.850Z,80.55
2022-09-28T23:58:47.050Z,80.47
